sensor_id;sensor_type;location;lat;lon;timestamp;temperature;humidity
77305;DHT22;66364;52.622;7.746;2023-07-22T00:01:21;13.90;99.90
77305;DHT22;66364;52.622;7.746;2023-07-22T00:03:22;14.10;99.90
77305;DHT22;66364;52.622;7.746;2023-07-22T00:05:23;13.70;99.90
77305;DHT22;66364;52.622;7.746;2023-07-22T00:07:23;13.90;99.90
77305;DHT22;66364;52.622;7.746;2023-07-22T00:09:25;13.50;99.90
77305;DHT22;66364;52.622;7.746;2023-07-22T00:11:27;13.80;99.90
77305;DHT22;66364;52.622;7.746;2023-07-22T00:13:28;13.80;99.90
77305;DHT22;66364;52.622;7.746;2023-07-22T00:15:29;13.80;99.90
77305;DHT22;66364;52.622;7.746;2023-07-22T00:17:30;13.60;99.90
77305;DHT22;66364;52.622;7.746;2023-07-22T00:19:31;13.70;99.90
77305;DHT22;66364;52.622;7.746;2023-07-22T00:21:32;13.80;99.90
77305;DHT22;66364;52.622;7.746;2023-07-22T00:23:33;13.70;99.90
77305;DHT22;66364;52.622;7.746;2023-07-22T00:25:35;13.70;99.90
77305;DHT22;66364;52.622;7.746;2023-07-22T00:27:37;13.90;99.90
77305;DHT22;66364;52.622;7.746;2023-07-22T00:29:38;13.70;99.90
77305;DHT22;66364;52.622;7.746;2023-07-22T00:31:39;13.90;99.90
77305;DHT22;66364;52.622;7.746;2023-07-22T00:33:40;13.70;99.90
77305;DHT22;66364;52.622;7.746;2023-07-22T00:35:41;13.70;99.90
77305;DHT22;66364;52.622;7.746;2023-07-22T00:37:42;13.50;99.90
77305;DHT22;66364;52.622;7.746;2023-07-22T00:39:43;13.70;99.90
77305;DHT22;66364;52.622;7.746;2023-07-22T00:41:44;13.70;99.90
77305;DHT22;66364;52.622;7.746;2023-07-22T00:43:46;13.60;99.90
77305;DHT22;66364;52.622;7.746;2023-07-22T00:45:47;13.70;99.90
77305;DHT22;66364;52.622;7.746;2023-07-22T00:47:48;13.50;99.90
77305;DHT22;66364;52.622;7.746;2023-07-22T00:49:50;13.40;99.90
77305;DHT22;66364;52.622;7.746;2023-07-22T00:51:52;13.40;99.90
77305;DHT22;66364;52.622;7.746;2023-07-22T00:53:54;13.50;99.90
77305;DHT22;66364;52.622;7.746;2023-07-22T00:55:55;13.50;99.90
77305;DHT22;66364;52.622;7.746;2023-07-22T00:57:56;13.70;99.90
77305;DHT22;66364;52.622;7.746;2023-07-22T00:59:57;13.30;99.90
77305;DHT22;66364;52.622;7.746;2023-07-22T01:01:58;13.40;99.90
77305;DHT22;66364;52.622;7.746;2023-07-22T01:03:59;13.40;99.90
77305;DHT22;66364;52.622;7.746;2023-07-22T01:06:00;13.50;99.90
77305;DHT22;66364;52.622;7.746;2023-07-22T01:08:01;13.50;99.90
77305;DHT22;66364;52.622;7.746;2023-07-22T01:10:09;13.60;99.90
77305;DHT22;66364;52.622;7.746;2023-07-22T01:12:12;13.30;99.90
77305;DHT22;66364;52.622;7.746;2023-07-22T01:14:12;13.40;99.90
77305;DHT22;66364;52.622;7.746;2023-07-22T01:16:14;13.30;99.90
77305;DHT22;66364;52.622;7.746;2023-07-22T01:18:15;13.20;99.90
77305;DHT22;66364;52.622;7.746;2023-07-22T01:20:18;13.20;99.90
77305;DHT22;66364;52.622;7.746;2023-07-22T01:22:19;13.30;99.90
77305;DHT22;66364;52.622;7.746;2023-07-22T01:24:22;13.30;99.90
77305;DHT22;66364;52.622;7.746;2023-07-22T01:26:23;13.30;99.90
77305;DHT22;66364;52.622;7.746;2023-07-22T01:28:24;13.70;99.90
77305;DHT22;66364;52.622;7.746;2023-07-22T01:30:27;13.40;99.90
77305;DHT22;66364;52.622;7.746;2023-07-22T01:32:28;13.30;99.90
77305;DHT22;66364;52.622;7.746;2023-07-22T01:34:29;13.50;99.90
77305;DHT22;66364;52.622;7.746;2023-07-22T01:36:30;13.30;99.90
77305;DHT22;66364;52.622;7.746;2023-07-22T01:38:31;13.30;99.90
77305;DHT22;66364;52.622;7.746;2023-07-22T01:40:32;13.40;99.90
77305;DHT22;66364;52.622;7.746;2023-07-22T01:42:32;13.30;99.90
77305;DHT22;66364;52.622;7.746;2023-07-22T01:44:34;13.10;99.90
77305;DHT22;66364;52.622;7.746;2023-07-22T01:46:35;13.50;99.90
77305;DHT22;66364;52.622;7.746;2023-07-22T01:48:36;13.40;99.90
77305;DHT22;66364;52.622;7.746;2023-07-22T01:50:37;13.40;99.90
77305;DHT22;66364;52.622;7.746;2023-07-22T01:52:38;13.00;99.90
77305;DHT22;66364;52.622;7.746;2023-07-22T01:54:39;13.40;99.90
77305;DHT22;66364;52.622;7.746;2023-07-22T01:56:39;13.30;99.90
77305;DHT22;66364;52.622;7.746;2023-07-22T01:58:40;13.20;99.90
77305;DHT22;66364;52.622;7.746;2023-07-22T02:00:41;13.30;99.90
77305;DHT22;66364;52.622;7.746;2023-07-22T02:02:42;13.00;99.90
77305;DHT22;66364;52.622;7.746;2023-07-22T02:04:43;13.20;99.90
77305;DHT22;66364;52.622;7.746;2023-07-22T02:06:47;13.10;99.90
77305;DHT22;66364;52.622;7.746;2023-07-22T02:08:49;13.10;99.90
77305;DHT22;66364;52.622;7.746;2023-07-22T02:10:50;13.00;99.90
77305;DHT22;66364;52.622;7.746;2023-07-22T02:12:51;13.00;99.90
77305;DHT22;66364;52.622;7.746;2023-07-22T02:14:53;13.10;99.90
77305;DHT22;66364;52.622;7.746;2023-07-22T02:16:56;13.10;99.90
77305;DHT22;66364;52.622;7.746;2023-07-22T02:18:58;13.20;99.90
77305;DHT22;66364;52.622;7.746;2023-07-22T02:20:59;13.00;99.90
77305;DHT22;66364;52.622;7.746;2023-07-22T02:23:02;13.30;99.90
77305;DHT22;66364;52.622;7.746;2023-07-22T02:25:03;13.00;99.90
77305;DHT22;66364;52.622;7.746;2023-07-22T02:27:04;13.20;99.90
77305;DHT22;66364;52.622;7.746;2023-07-22T02:29:05;13.00;99.90
77305;DHT22;66364;52.622;7.746;2023-07-22T02:31:06;13.20;99.90
77305;DHT22;66364;52.622;7.746;2023-07-22T02:33:08;12.80;99.90
77305;DHT22;66364;52.622;7.746;2023-07-22T02:35:09;13.00;99.90
77305;DHT22;66364;52.622;7.746;2023-07-22T02:37:12;13.00;99.90
77305;DHT22;66364;52.622;7.746;2023-07-22T02:39:13;13.10;99.90
77305;DHT22;66364;52.622;7.746;2023-07-22T02:41:14;13.10;99.90
77305;DHT22;66364;52.622;7.746;2023-07-22T02:43:16;13.30;99.90
77305;DHT22;66364;52.622;7.746;2023-07-22T02:45:17;13.30;99.90
77305;DHT22;66364;52.622;7.746;2023-07-22T02:47:18;13.00;99.90
77305;DHT22;66364;52.622;7.746;2023-07-22T02:49:19;13.20;99.90
77305;DHT22;66364;52.622;7.746;2023-07-22T02:51:20;12.90;99.90
77305;DHT22;66364;52.622;7.746;2023-07-22T02:53:21;12.90;99.90
77305;DHT22;66364;52.622;7.746;2023-07-22T02:55:23;12.80;99.90
77305;DHT22;66364;52.622;7.746;2023-07-22T02:57:24;12.90;99.90
77305;DHT22;66364;52.622;7.746;2023-07-22T02:59:25;12.90;99.90
77305;DHT22;66364;52.622;7.746;2023-07-22T03:01:26;12.80;99.90
77305;DHT22;66364;52.622;7.746;2023-07-22T03:03:28;12.80;99.90
77305;DHT22;66364;52.622;7.746;2023-07-22T03:05:30;12.70;99.90
77305;DHT22;66364;52.622;7.746;2023-07-22T03:07:34;12.70;99.90
77305;DHT22;66364;52.622;7.746;2023-07-22T03:09:35;12.80;99.90
77305;DHT22;66364;52.622;7.746;2023-07-22T03:11:36;12.80;99.90
77305;DHT22;66364;52.622;7.746;2023-07-22T03:13:37;12.90;99.90
77305;DHT22;66364;52.622;7.746;2023-07-22T03:15:38;12.70;99.90
77305;DHT22;66364;52.622;7.746;2023-07-22T03:17:40;12.70;99.90
77305;DHT22;66364;52.622;7.746;2023-07-22T03:19:43;12.80;99.90
77305;DHT22;66364;52.622;7.746;2023-07-22T03:21:46;12.90;99.90
77305;DHT22;66364;52.622;7.746;2023-07-22T03:23:49;12.80;99.90
77305;DHT22;66364;52.622;7.746;2023-07-22T03:25:52;13.10;99.90
77305;DHT22;66364;52.622;7.746;2023-07-22T03:27:55;12.70;99.90
77305;DHT22;66364;52.622;7.746;2023-07-22T03:29:56;12.90;99.90
77305;DHT22;66364;52.622;7.746;2023-07-22T03:31:59;12.70;99.90
77305;DHT22;66364;52.622;7.746;2023-07-22T03:34:02;12.60;99.90
77305;DHT22;66364;52.622;7.746;2023-07-22T03:36:05;12.60;99.90
77305;DHT22;66364;52.622;7.746;2023-07-22T03:38:07;12.90;99.90
77305;DHT22;66364;52.622;7.746;2023-07-22T03:40:10;13.20;99.90
77305;DHT22;66364;52.622;7.746;2023-07-22T03:42:13;12.90;99.90
77305;DHT22;66364;52.622;7.746;2023-07-22T03:44:15;12.90;99.90
77305;DHT22;66364;52.622;7.746;2023-07-22T03:46:16;12.90;99.90
77305;DHT22;66364;52.622;7.746;2023-07-22T03:48:17;12.90;99.90
77305;DHT22;66364;52.622;7.746;2023-07-22T03:50:18;12.90;99.90
77305;DHT22;66364;52.622;7.746;2023-07-22T03:52:21;13.00;99.90
77305;DHT22;66364;52.622;7.746;2023-07-22T03:54:24;13.20;99.90
77305;DHT22;66364;52.622;7.746;2023-07-22T03:56:26;13.00;99.90
77305;DHT22;66364;52.622;7.746;2023-07-22T03:58:26;12.90;99.90
77305;DHT22;66364;52.622;7.746;2023-07-22T04:00:27;13.10;99.90
77305;DHT22;66364;52.622;7.746;2023-07-22T04:02:30;13.10;99.90
77305;DHT22;66364;52.622;7.746;2023-07-22T04:04:33;13.10;99.90
77305;DHT22;66364;52.622;7.746;2023-07-22T04:06:35;13.30;99.90
77305;DHT22;66364;52.622;7.746;2023-07-22T04:08:36;13.30;99.90
77305;DHT22;66364;52.622;7.746;2023-07-22T04:10:37;13.30;99.90
77305;DHT22;66364;52.622;7.746;2023-07-22T04:12:38;13.20;99.90
77305;DHT22;66364;52.622;7.746;2023-07-22T04:14:39;13.30;99.90
77305;DHT22;66364;52.622;7.746;2023-07-22T04:16:42;13.40;99.90
77305;DHT22;66364;52.622;7.746;2023-07-22T04:18:44;13.20;99.90
77305;DHT22;66364;52.622;7.746;2023-07-22T04:20:47;13.30;99.90
77305;DHT22;66364;52.622;7.746;2023-07-22T04:22:48;13.20;99.90
77305;DHT22;66364;52.622;7.746;2023-07-22T04:24:51;13.20;99.90
77305;DHT22;66364;52.622;7.746;2023-07-22T04:26:55;13.20;99.90
77305;DHT22;66364;52.622;7.746;2023-07-22T04:28:56;13.20;99.90
77305;DHT22;66364;52.622;7.746;2023-07-22T04:30:59;13.10;99.90
77305;DHT22;66364;52.622;7.746;2023-07-22T04:33:00;13.00;99.90
77305;DHT22;66364;52.622;7.746;2023-07-22T04:35:04;13.00;99.90
77305;DHT22;66364;52.622;7.746;2023-07-22T04:37:05;13.30;99.90
77305;DHT22;66364;52.622;7.746;2023-07-22T04:39:06;13.10;99.90
77305;DHT22;66364;52.622;7.746;2023-07-22T04:41:07;13.00;99.90
77305;DHT22;66364;52.622;7.746;2023-07-22T04:43:09;13.00;99.90
77305;DHT22;66364;52.622;7.746;2023-07-22T04:45:10;13.10;99.90
77305;DHT22;66364;52.622;7.746;2023-07-22T04:47:12;13.00;99.90
77305;DHT22;66364;52.622;7.746;2023-07-22T04:49:13;13.20;99.90
77305;DHT22;66364;52.622;7.746;2023-07-22T04:51:14;13.30;99.90
77305;DHT22;66364;52.622;7.746;2023-07-22T04:53:16;13.20;99.90
77305;DHT22;66364;52.622;7.746;2023-07-22T04:55:17;13.20;99.90
77305;DHT22;66364;52.622;7.746;2023-07-22T04:57:21;13.20;99.90
77305;DHT22;66364;52.622;7.746;2023-07-22T04:59:22;13.20;99.90
77305;DHT22;66364;52.622;7.746;2023-07-22T05:01:22;13.40;99.90
77305;DHT22;66364;52.622;7.746;2023-07-22T05:03:23;13.30;99.90
77305;DHT22;66364;52.622;7.746;2023-07-22T05:05:24;13.50;99.90
77305;DHT22;66364;52.622;7.746;2023-07-22T05:07:25;13.60;99.90
77305;DHT22;66364;52.622;7.746;2023-07-22T05:09:26;13.50;99.90
77305;DHT22;66364;52.622;7.746;2023-07-22T05:11:28;13.50;99.90
77305;DHT22;66364;52.622;7.746;2023-07-22T05:13:29;13.50;99.90
77305;DHT22;66364;52.622;7.746;2023-07-22T05:15:39;13.20;99.90
77305;DHT22;66364;52.622;7.746;2023-07-22T05:17:41;13.00;99.90
77305;DHT22;66364;52.622;7.746;2023-07-22T05:19:42;13.30;99.90
77305;DHT22;66364;52.622;7.746;2023-07-22T05:21:43;13.40;99.90
77305;DHT22;66364;52.622;7.746;2023-07-22T05:23:44;13.40;99.90
77305;DHT22;66364;52.622;7.746;2023-07-22T05:25:52;13.30;99.90
77305;DHT22;66364;52.622;7.746;2023-07-22T05:27:53;13.40;99.90
77305;DHT22;66364;52.622;7.746;2023-07-22T05:29:55;13.60;99.90
77305;DHT22;66364;52.622;7.746;2023-07-22T05:31:56;13.60;99.90
77305;DHT22;66364;52.622;7.746;2023-07-22T05:33:57;13.60;99.90
77305;DHT22;66364;52.622;7.746;2023-07-22T05:35:58;13.70;99.90
77305;DHT22;66364;52.622;7.746;2023-07-22T05:38:00;13.70;99.90
77305;DHT22;66364;52.622;7.746;2023-07-22T05:40:01;13.80;99.90
77305;DHT22;66364;52.622;7.746;2023-07-22T05:42:02;13.70;99.90
77305;DHT22;66364;52.622;7.746;2023-07-22T05:44:03;13.80;99.90
77305;DHT22;66364;52.622;7.746;2023-07-22T05:46:04;13.90;99.90
77305;DHT22;66364;52.622;7.746;2023-07-22T05:48:05;14.20;99.90
77305;DHT22;66364;52.622;7.746;2023-07-22T05:50:07;13.80;99.90
77305;DHT22;66364;52.622;7.746;2023-07-22T05:52:08;14.20;99.90
77305;DHT22;66364;52.622;7.746;2023-07-22T05:54:09;14.10;99.90
77305;DHT22;66364;52.622;7.746;2023-07-22T05:56:10;14.10;99.90
77305;DHT22;66364;52.622;7.746;2023-07-22T05:58:17;14.20;99.90
77305;DHT22;66364;52.622;7.746;2023-07-22T06:00:18;14.20;99.90
77305;DHT22;66364;52.622;7.746;2023-07-22T06:02:20;14.20;99.90
77305;DHT22;66364;52.622;7.746;2023-07-22T06:04:21;14.40;99.90
77305;DHT22;66364;52.622;7.746;2023-07-22T06:06:22;14.20;99.90
77305;DHT22;66364;52.622;7.746;2023-07-22T06:08:24;14.30;99.90
77305;DHT22;66364;52.622;7.746;2023-07-22T06:10:24;14.10;99.90
77305;DHT22;66364;52.622;7.746;2023-07-22T06:12:26;14.10;99.90
77305;DHT22;66364;52.622;7.746;2023-07-22T06:14:27;14.10;99.90
77305;DHT22;66364;52.622;7.746;2023-07-22T06:16:28;14.10;99.90
77305;DHT22;66364;52.622;7.746;2023-07-22T06:18:29;14.20;99.90
77305;DHT22;66364;52.622;7.746;2023-07-22T06:20:29;14.20;99.90
77305;DHT22;66364;52.622;7.746;2023-07-22T06:22:31;14.20;99.90
77305;DHT22;66364;52.622;7.746;2023-07-22T06:24:32;14.30;99.90
77305;DHT22;66364;52.622;7.746;2023-07-22T06:26:33;14.40;99.90
77305;DHT22;66364;52.622;7.746;2023-07-22T06:28:34;14.60;99.90
77305;DHT22;66364;52.622;7.746;2023-07-22T06:30:35;14.70;99.90
77305;DHT22;66364;52.622;7.746;2023-07-22T06:32:39;15.10;99.90
77305;DHT22;66364;52.622;7.746;2023-07-22T06:34:40;14.90;99.90
77305;DHT22;66364;52.622;7.746;2023-07-22T06:36:40;14.80;99.90
77305;DHT22;66364;52.622;7.746;2023-07-22T06:38:43;15.00;99.90
77305;DHT22;66364;52.622;7.746;2023-07-22T06:40:44;14.80;99.90
77305;DHT22;66364;52.622;7.746;2023-07-22T06:42:45;15.00;99.90
77305;DHT22;66364;52.622;7.746;2023-07-22T06:44:46;15.40;99.90
77305;DHT22;66364;52.622;7.746;2023-07-22T06:46:47;15.20;99.90
77305;DHT22;66364;52.622;7.746;2023-07-22T06:48:49;15.40;99.90
77305;DHT22;66364;52.622;7.746;2023-07-22T06:50:50;15.50;99.90
77305;DHT22;66364;52.622;7.746;2023-07-22T06:52:51;15.50;99.90
77305;DHT22;66364;52.622;7.746;2023-07-22T06:54:52;15.60;99.90
77305;DHT22;66364;52.622;7.746;2023-07-22T06:56:52;15.50;99.90
77305;DHT22;66364;52.622;7.746;2023-07-22T06:58:54;15.50;99.90
77305;DHT22;66364;52.622;7.746;2023-07-22T07:00:55;15.70;99.90
77305;DHT22;66364;52.622;7.746;2023-07-22T07:02:57;15.60;99.90
77305;DHT22;66364;52.622;7.746;2023-07-22T07:04:58;15.40;99.90
77305;DHT22;66364;52.622;7.746;2023-07-22T07:06:59;15.40;99.90
77305;DHT22;66364;52.622;7.746;2023-07-22T07:09:00;15.20;99.90
77305;DHT22;66364;52.622;7.746;2023-07-22T07:11:00;15.50;99.90
77305;DHT22;66364;52.622;7.746;2023-07-22T07:13:01;15.50;99.90
77305;DHT22;66364;52.622;7.746;2023-07-22T07:15:02;15.40;99.90
77305;DHT22;66364;52.622;7.746;2023-07-22T07:17:04;15.50;99.90
77305;DHT22;66364;52.622;7.746;2023-07-22T07:19:05;15.40;99.90
77305;DHT22;66364;52.622;7.746;2023-07-22T07:21:06;15.60;99.90
77305;DHT22;66364;52.622;7.746;2023-07-22T07:23:07;15.70;99.90
77305;DHT22;66364;52.622;7.746;2023-07-22T07:25:08;15.40;99.90
77305;DHT22;66364;52.622;7.746;2023-07-22T07:27:09;15.70;99.90
77305;DHT22;66364;52.622;7.746;2023-07-22T07:29:10;15.90;99.90
77305;DHT22;66364;52.622;7.746;2023-07-22T07:31:11;15.80;99.90
77305;DHT22;66364;52.622;7.746;2023-07-22T07:33:12;15.80;99.90
77305;DHT22;66364;52.622;7.746;2023-07-22T07:35:13;15.90;99.90
77305;DHT22;66364;52.622;7.746;2023-07-22T07:37:14;15.60;99.90
77305;DHT22;66364;52.622;7.746;2023-07-22T07:39:15;15.60;99.90
77305;DHT22;66364;52.622;7.746;2023-07-22T07:41:16;15.70;99.90
77305;DHT22;66364;52.622;7.746;2023-07-22T07:43:17;15.80;99.90
77305;DHT22;66364;52.622;7.746;2023-07-22T07:45:18;15.80;99.90
77305;DHT22;66364;52.622;7.746;2023-07-22T07:47:19;15.80;99.90
77305;DHT22;66364;52.622;7.746;2023-07-22T07:49:20;15.80;99.90
77305;DHT22;66364;52.622;7.746;2023-07-22T07:51:22;15.80;99.90
77305;DHT22;66364;52.622;7.746;2023-07-22T07:53:25;15.80;99.90
77305;DHT22;66364;52.622;7.746;2023-07-22T07:55:26;16.00;99.90
77305;DHT22;66364;52.622;7.746;2023-07-22T07:57:28;16.30;99.90
77305;DHT22;66364;52.622;7.746;2023-07-22T07:59:29;16.50;99.90
77305;DHT22;66364;52.622;7.746;2023-07-22T08:01:30;16.50;99.90
77305;DHT22;66364;52.622;7.746;2023-07-22T08:03:33;16.50;99.90
77305;DHT22;66364;52.622;7.746;2023-07-22T08:05:34;16.60;99.90
77305;DHT22;66364;52.622;7.746;2023-07-22T08:07:35;16.60;99.90
77305;DHT22;66364;52.622;7.746;2023-07-22T08:09:36;16.70;99.90
77305;DHT22;66364;52.622;7.746;2023-07-22T08:11:37;16.70;99.90
77305;DHT22;66364;52.622;7.746;2023-07-22T08:13:40;17.00;99.90
77305;DHT22;66364;52.622;7.746;2023-07-22T08:15:41;17.00;99.90
77305;DHT22;66364;52.622;7.746;2023-07-22T08:17:42;16.90;99.90
77305;DHT22;66364;52.622;7.746;2023-07-22T08:19:44;17.00;99.90
77305;DHT22;66364;52.622;7.746;2023-07-22T08:21:45;17.20;99.90
77305;DHT22;66364;52.622;7.746;2023-07-22T08:23:46;17.40;99.90
77305;DHT22;66364;52.622;7.746;2023-07-22T08:25:47;17.60;99.90
77305;DHT22;66364;52.622;7.746;2023-07-22T08:27:50;18.00;99.90
77305;DHT22;66364;52.622;7.746;2023-07-22T08:29:51;17.80;99.90
77305;DHT22;66364;52.622;7.746;2023-07-22T08:31:52;17.90;99.90
77305;DHT22;66364;52.622;7.746;2023-07-22T08:33:54;18.00;99.90
77305;DHT22;66364;52.622;7.746;2023-07-22T08:35:58;17.70;99.90
77305;DHT22;66364;52.622;7.746;2023-07-22T08:37:59;17.50;99.90
77305;DHT22;66364;52.622;7.746;2023-07-22T08:40:00;17.90;99.90
77305;DHT22;66364;52.622;7.746;2023-07-22T08:42:03;17.80;99.90
77305;DHT22;66364;52.622;7.746;2023-07-22T08:44:06;17.70;99.90
77305;DHT22;66364;52.622;7.746;2023-07-22T08:46:09;17.90;99.90
77305;DHT22;66364;52.622;7.746;2023-07-22T08:48:11;17.90;99.90
77305;DHT22;66364;52.622;7.746;2023-07-22T08:50:16;17.70;99.90
77305;DHT22;66364;52.622;7.746;2023-07-22T08:52:17;17.80;99.90
77305;DHT22;66364;52.622;7.746;2023-07-22T08:54:19;17.80;99.90
77305;DHT22;66364;52.622;7.746;2023-07-22T08:56:21;17.90;99.90
77305;DHT22;66364;52.622;7.746;2023-07-22T08:58:24;18.10;99.90
77305;DHT22;66364;52.622;7.746;2023-07-22T09:00:25;18.20;99.90
77305;DHT22;66364;52.622;7.746;2023-07-22T09:02:27;18.60;99.90
77305;DHT22;66364;52.622;7.746;2023-07-22T09:04:30;18.70;99.90
77305;DHT22;66364;52.622;7.746;2023-07-22T09:06:35;18.90;99.90
77305;DHT22;66364;52.622;7.746;2023-07-22T09:08:51;19.00;99.90
77305;DHT22;66364;52.622;7.746;2023-07-22T09:10:53;19.10;99.90
77305;DHT22;66364;52.622;7.746;2023-07-22T09:12:55;19.00;99.90
77305;DHT22;66364;52.622;7.746;2023-07-22T09:14:57;18.90;99.90
77305;DHT22;66364;52.622;7.746;2023-07-22T09:16:58;18.90;99.90
77305;DHT22;66364;52.622;7.746;2023-07-22T09:19:03;19.20;99.90
77305;DHT22;66364;52.622;7.746;2023-07-22T09:21:04;19.20;99.90
77305;DHT22;66364;52.622;7.746;2023-07-22T09:23:05;19.10;99.90
77305;DHT22;66364;52.622;7.746;2023-07-22T09:25:20;19.00;99.90
77305;DHT22;66364;52.622;7.746;2023-07-22T09:27:33;19.60;99.90
77305;DHT22;66364;52.622;7.746;2023-07-22T09:29:37;19.90;99.90
77305;DHT22;66364;52.622;7.746;2023-07-22T09:31:50;19.80;99.90
77305;DHT22;66364;52.622;7.746;2023-07-22T09:33:52;19.70;99.90
77305;DHT22;66364;52.622;7.746;2023-07-22T09:35:54;19.70;99.90
77305;DHT22;66364;52.622;7.746;2023-07-22T09:37:56;19.50;99.90
77305;DHT22;66364;52.622;7.746;2023-07-22T09:39:57;19.70;99.90
77305;DHT22;66364;52.622;7.746;2023-07-22T09:41:59;19.50;99.90
77305;DHT22;66364;52.622;7.746;2023-07-22T09:44:03;19.50;99.90
77305;DHT22;66364;52.622;7.746;2023-07-22T09:46:09;19.20;99.90
77305;DHT22;66364;52.622;7.746;2023-07-22T09:48:10;19.20;99.90
77305;DHT22;66364;52.622;7.746;2023-07-22T09:50:18;19.40;99.90
77305;DHT22;66364;52.622;7.746;2023-07-22T09:52:19;19.00;99.90
77305;DHT22;66364;52.622;7.746;2023-07-22T09:54:20;19.10;99.90
77305;DHT22;66364;52.622;7.746;2023-07-22T09:56:21;19.00;99.90
77305;DHT22;66364;52.622;7.746;2023-07-22T09:58:24;18.80;99.90
77305;DHT22;66364;52.622;7.746;2023-07-22T10:00:31;18.70;99.90
77305;DHT22;66364;52.622;7.746;2023-07-22T10:02:33;18.70;99.90
77305;DHT22;66364;52.622;7.746;2023-07-22T10:04:37;18.60;99.90
77305;DHT22;66364;52.622;7.746;2023-07-22T10:06:40;18.60;99.90
77305;DHT22;66364;52.622;7.746;2023-07-22T10:08:43;18.80;99.90
77305;DHT22;66364;52.622;7.746;2023-07-22T10:10:46;18.80;99.90
77305;DHT22;66364;52.622;7.746;2023-07-22T10:12:46;18.90;99.90
77305;DHT22;66364;52.622;7.746;2023-07-22T10:14:51;19.00;99.90
77305;DHT22;66364;52.622;7.746;2023-07-22T10:16:52;19.40;99.90
77305;DHT22;66364;52.622;7.746;2023-07-22T10:18:56;19.50;99.90
77305;DHT22;66364;52.622;7.746;2023-07-22T10:20:58;19.30;99.40
77305;DHT22;66364;52.622;7.746;2023-07-22T10:23:00;19.00;99.90
77305;DHT22;66364;52.622;7.746;2023-07-22T10:25:04;19.10;99.90
77305;DHT22;66364;52.622;7.746;2023-07-22T10:27:06;19.00;99.90
77305;DHT22;66364;52.622;7.746;2023-07-22T10:29:08;19.00;99.90
77305;DHT22;66364;52.622;7.746;2023-07-22T10:31:09;19.10;99.90
77305;DHT22;66364;52.622;7.746;2023-07-22T10:33:11;18.90;99.90
77305;DHT22;66364;52.622;7.746;2023-07-22T10:37:35;18.90;99.90
77305;DHT22;66364;52.622;7.746;2023-07-22T10:39:38;18.80;99.90
77305;DHT22;66364;52.622;7.746;2023-07-22T10:41:40;18.70;99.90
77305;DHT22;66364;52.622;7.746;2023-07-22T10:43:41;18.70;99.90
77305;DHT22;66364;52.622;7.746;2023-07-22T10:45:45;18.70;99.90
77305;DHT22;66364;52.622;7.746;2023-07-22T10:47:48;18.70;99.90
77305;DHT22;66364;52.622;7.746;2023-07-22T10:49:51;18.60;99.90
77305;DHT22;66364;52.622;7.746;2023-07-22T10:51:52;18.90;99.90
77305;DHT22;66364;52.622;7.746;2023-07-22T10:53:55;19.10;99.90
77305;DHT22;66364;52.622;7.746;2023-07-22T10:56:16;19.00;99.90
77305;DHT22;66364;52.622;7.746;2023-07-22T10:58:19;19.10;99.90
77305;DHT22;66364;52.622;7.746;2023-07-22T11:00:21;19.00;99.90
77305;DHT22;66364;52.622;7.746;2023-07-22T11:02:28;19.10;99.90
77305;DHT22;66364;52.622;7.746;2023-07-22T11:04:27;19.10;99.90
77305;DHT22;66364;52.622;7.746;2023-07-22T11:06:29;19.30;99.90
77305;DHT22;66364;52.622;7.746;2023-07-22T11:08:37;19.00;96.20
77305;DHT22;66364;52.622;7.746;2023-07-22T11:10:56;19.00;96.70
77305;DHT22;66364;52.622;7.746;2023-07-22T11:12:59;19.20;97.60
77305;DHT22;66364;52.622;7.746;2023-07-22T11:15:04;19.10;97.80
77305;DHT22;66364;52.622;7.746;2023-07-22T11:17:07;19.10;97.80
77305;DHT22;66364;52.622;7.746;2023-07-22T11:19:08;19.30;96.10
77305;DHT22;66364;52.622;7.746;2023-07-22T11:21:10;19.10;96.60
77305;DHT22;66364;52.622;7.746;2023-07-22T11:23:12;19.20;95.50
77305;DHT22;66364;52.622;7.746;2023-07-22T11:25:18;19.50;96.40
77305;DHT22;66364;52.622;7.746;2023-07-22T11:27:19;19.40;96.10
77305;DHT22;66364;52.622;7.746;2023-07-22T11:29:21;19.50;96.50
77305;DHT22;66364;52.622;7.746;2023-07-22T11:31:22;19.60;94.80
77305;DHT22;66364;52.622;7.746;2023-07-22T11:33:24;19.60;94.70
77305;DHT22;66364;52.622;7.746;2023-07-22T11:35:31;19.70;94.50
77305;DHT22;66364;52.622;7.746;2023-07-22T11:37:31;19.80;94.70
77305;DHT22;66364;52.622;7.746;2023-07-22T11:39:32;19.80;93.60
77305;DHT22;66364;52.622;7.746;2023-07-22T11:41:34;19.90;94.30
77305;DHT22;66364;52.622;7.746;2023-07-22T11:43:35;20.00;93.50
77305;DHT22;66364;52.622;7.746;2023-07-22T11:45:38;20.30;91.30
77305;DHT22;66364;52.622;7.746;2023-07-22T11:47:40;20.00;90.30
77305;DHT22;66364;52.622;7.746;2023-07-22T11:49:41;19.80;90.40
77305;DHT22;66364;52.622;7.746;2023-07-22T11:51:42;20.10;88.70
77305;DHT22;66364;52.622;7.746;2023-07-22T11:53:46;20.00;89.30
77305;DHT22;66364;52.622;7.746;2023-07-22T11:55:47;20.10;87.70
77305;DHT22;66364;52.622;7.746;2023-07-22T11:57:53;20.00;84.70
77305;DHT22;66364;52.622;7.746;2023-07-22T11:59:56;20.00;84.00
77305;DHT22;66364;52.622;7.746;2023-07-22T12:01:57;20.50;83.50
77305;DHT22;66364;52.622;7.746;2023-07-22T12:03:58;20.60;83.10
77305;DHT22;66364;52.622;7.746;2023-07-22T12:06:03;20.40;82.70
77305;DHT22;66364;52.622;7.746;2023-07-22T12:08:05;20.60;81.90
77305;DHT22;66364;52.622;7.746;2023-07-22T12:10:07;20.70;80.40
77305;DHT22;66364;52.622;7.746;2023-07-22T12:12:08;20.70;78.60
77305;DHT22;66364;52.622;7.746;2023-07-22T12:14:18;20.50;80.20
77305;DHT22;66364;52.622;7.746;2023-07-22T12:16:22;20.60;80.30
77305;DHT22;66364;52.622;7.746;2023-07-22T12:18:24;20.50;79.00
77305;DHT22;66364;52.622;7.746;2023-07-22T12:20:32;20.40;79.40
77305;DHT22;66364;52.622;7.746;2023-07-22T12:22:32;20.30;80.70
77305;DHT22;66364;52.622;7.746;2023-07-22T12:24:33;20.20;82.40
77305;DHT22;66364;52.622;7.746;2023-07-22T12:26:34;20.20;82.80
77305;DHT22;66364;52.622;7.746;2023-07-22T12:28:35;20.20;84.40
77305;DHT22;66364;52.622;7.746;2023-07-22T12:30:36;20.10;84.00
77305;DHT22;66364;52.622;7.746;2023-07-22T12:32:38;20.10;85.80
77305;DHT22;66364;52.622;7.746;2023-07-22T12:34:55;20.00;86.20
77305;DHT22;66364;52.622;7.746;2023-07-22T12:36:56;19.90;86.70
77305;DHT22;66364;52.622;7.746;2023-07-22T12:39:09;19.90;88.20
77305;DHT22;66364;52.622;7.746;2023-07-22T12:41:18;20.20;86.30
77305;DHT22;66364;52.622;7.746;2023-07-22T12:43:20;20.00;86.30
77305;DHT22;66364;52.622;7.746;2023-07-22T12:45:21;19.70;85.80
77305;DHT22;66364;52.622;7.746;2023-07-22T12:47:32;19.40;84.70
77305;DHT22;66364;52.622;7.746;2023-07-22T12:49:34;19.80;86.00
77305;DHT22;66364;52.622;7.746;2023-07-22T12:51:36;19.70;86.30
77305;DHT22;66364;52.622;7.746;2023-07-22T12:53:44;19.60;87.30